sensor_id;sensor_type;location;lat;lon;timestamp;pressure;altitude;pressure_sealevel;temperature;humidity
5812;BME280;2932;52.400;9.558;2023-02-11T00:00:21;102478.13;;;8.42;73.20
5812;BME280;2932;52.400;9.558;2023-02-11T00:02:46;102482.59;;;8.38;73.55
5812;BME280;2932;52.400;9.558;2023-02-11T00:05:12;102485.44;;;8.17;74.23
5812;BME280;2932;52.400;9.558;2023-02-11T00:07:37;102486.13;;;8.43;74.01
5812;BME280;2932;52.400;9.558;2023-02-11T00:10:04;102474.91;;;8.29;73.93
5812;BME280;2932;52.400;9.558;2023-02-11T00:12:32;102469.38;;;8.34;73.61
5812;BME280;2932;52.400;9.558;2023-02-11T00:14:58;102497.50;;;8.31;74.71
5812;BME280;2932;52.400;9.558;2023-02-11T00:17:23;102483.75;;;8.26;74.35
5812;BME280;2932;52.400;9.558;2023-02-11T00:19:52;102482.09;;;8.25;74.45
5812;BME280;2932;52.400;9.558;2023-02-11T00:22:18;102488.69;;;8.34;74.60
5812;BME280;2932;52.400;9.558;2023-02-11T00:24:43;102491.78;;;8.18;74.99
5812;BME280;2932;52.400;9.558;2023-02-11T00:27:09;102494.19;;;8.29;74.98
5812;BME280;2932;52.400;9.558;2023-02-11T00:29:35;102493.16;;;8.15;75.51
5812;BME280;2932;52.400;9.558;2023-02-11T00:32:01;102481.28;;;8.20;75.41
5812;BME280;2932;52.400;9.558;2023-02-11T00:34:32;102477.00;;;8.48;74.76
5812;BME280;2932;52.400;9.558;2023-02-11T00:36:57;102463.00;;;7.90;76.28
5812;BME280;2932;52.400;9.558;2023-02-11T00:39:23;102488.72;;;8.24;76.15
5812;BME280;2932;52.400;9.558;2023-02-11T00:41:49;102493.22;;;8.05;76.45
5812;BME280;2932;52.400;9.558;2023-02-11T00:44:14;102501.13;;;8.22;75.93
5812;BME280;2932;52.400;9.558;2023-02-11T00:46:40;102508.00;;;8.34;76.35
5812;BME280;2932;52.400;9.558;2023-02-11T00:49:05;102496.50;;;8.07;76.92
5812;BME280;2932;52.400;9.558;2023-02-11T00:51:30;102510.09;;;8.48;76.18
5812;BME280;2932;52.400;9.558;2023-02-11T00:53:56;102510.19;;;8.27;76.65
5812;BME280;2932;52.400;9.558;2023-02-11T00:56:21;102519.38;;;8.08;77.52
5812;BME280;2932;52.400;9.558;2023-02-11T00:58:46;102511.91;;;8.18;77.13
5812;BME280;2932;52.400;9.558;2023-02-11T01:01:12;102520.13;;;8.28;77.28
5812;BME280;2932;52.400;9.558;2023-02-11T01:03:38;102524.03;;;8.17;77.93
5812;BME280;2932;52.400;9.558;2023-02-11T01:06:05;102520.13;;;8.33;78.13
5812;BME280;2932;52.400;9.558;2023-02-11T01:08:31;102519.88;;;8.25;78.26
5812;BME280;2932;52.400;9.558;2023-02-11T01:10:59;102511.00;;;8.38;77.96
5812;BME280;2932;52.400;9.558;2023-02-11T01:13:25;102498.25;;;7.93;79.73
5812;BME280;2932;52.400;9.558;2023-02-11T01:15:50;102494.66;;;7.97;79.91
5812;BME280;2932;52.400;9.558;2023-02-11T01:18:16;102489.44;;;7.91;80.42
5812;BME280;2932;52.400;9.558;2023-02-11T01:20:41;102507.50;;;8.12;80.41
5812;BME280;2932;52.400;9.558;2023-02-11T01:23:07;102497.13;;;7.99;80.87
5812;BME280;2932;52.400;9.558;2023-02-11T01:25:32;102495.78;;;7.86;81.43
5812;BME280;2932;52.400;9.558;2023-02-11T01:27:57;102494.47;;;8.28;80.68
5812;BME280;2932;52.400;9.558;2023-02-11T01:30:23;102489.00;;;8.23;80.68
5812;BME280;2932;52.400;9.558;2023-02-11T01:32:48;102484.97;;;8.00;81.20
5812;BME280;2932;52.400;9.558;2023-02-11T01:35:13;102487.03;;;8.28;81.15
5812;BME280;2932;52.400;9.558;2023-02-11T01:37:39;102474.25;;;7.98;81.82
5812;BME280;2932;52.400;9.558;2023-02-11T01:40:06;102476.66;;;8.10;82.04
5812;BME280;2932;52.400;9.558;2023-02-11T01:42:32;102470.94;;;7.96;82.21
5812;BME280;2932;52.400;9.558;2023-02-11T01:44:59;102465.03;;;8.18;82.00
5812;BME280;2932;52.400;9.558;2023-02-11T01:47:25;102441.69;;;8.50;81.23
5812;BME280;2932;52.400;9.558;2023-02-11T01:50:00;102438.06;;;8.10;83.02
5812;BME280;2932;52.400;9.558;2023-02-11T01:52:35;102429.34;;;7.93;82.76
5812;BME280;2932;52.400;9.558;2023-02-11T01:55:07;102411.69;;;7.99;82.82
5812;BME280;2932;52.400;9.558;2023-02-11T01:57:54;102415.25;;;7.99;82.54
5812;BME280;2932;52.400;9.558;2023-02-11T02:00:29;102399.88;;;7.93;82.94
5812;BME280;2932;52.400;9.558;2023-02-11T02:03:14;102397.75;;;8.19;82.53
5812;BME280;2932;52.400;9.558;2023-02-11T02:05:43;102402.59;;;7.98;82.38
5812;BME280;2932;52.400;9.558;2023-02-11T02:10:53;102392.69;;;8.37;81.49
5812;BME280;2932;52.400;9.558;2023-02-11T02:13:21;102390.47;;;7.99;82.59
5812;BME280;2932;52.400;9.558;2023-02-11T02:15:49;102389.84;;;8.47;80.98
5812;BME280;2932;52.400;9.558;2023-02-11T02:37:17;102395.44;;;7.97;83.25
5812;BME280;2932;52.400;9.558;2023-02-11T02:39:46;102394.06;;;7.95;83.70
5812;BME280;2932;52.400;9.558;2023-02-11T02:42:14;102383.97;;;8.19;82.85
5812;BME280;2932;52.400;9.558;2023-02-11T02:44:47;102373.16;;;8.33;81.95
5812;BME280;2932;52.400;9.558;2023-02-11T02:47:12;102371.84;;;8.15;82.86
5812;BME280;2932;52.400;9.558;2023-02-11T02:49:38;102365.25;;;8.16;82.66
5812;BME280;2932;52.400;9.558;2023-02-11T03:06:07;102377.34;;;8.20;82.37
5812;BME280;2932;52.400;9.558;2023-02-11T03:08:50;102360.16;;;8.39;81.87
5812;BME280;2932;52.400;9.558;2023-02-11T03:11:19;102350.38;;;8.12;82.06
5812;BME280;2932;52.400;9.558;2023-02-11T03:13:47;102337.75;;;8.40;81.97
5812;BME280;2932;52.400;9.558;2023-02-11T03:16:17;102348.13;;;8.19;82.52
5812;BME280;2932;52.400;9.558;2023-02-11T03:18:49;102349.63;;;8.41;81.92
5812;BME280;2932;52.400;9.558;2023-02-11T03:21:16;102352.38;;;8.41;82.01
5812;BME280;2932;52.400;9.558;2023-02-11T03:23:52;102347.50;;;8.27;82.45
5812;BME280;2932;52.400;9.558;2023-02-11T03:26:30;102346.03;;;8.40;82.42
5812;BME280;2932;52.400;9.558;2023-02-11T03:29:30;102322.69;;;8.27;82.56
5812;BME280;2932;52.400;9.558;2023-02-11T03:32:11;102331.13;;;8.41;82.95
5812;BME280;2932;52.400;9.558;2023-02-11T03:34:44;102329.13;;;8.52;82.63
5812;BME280;2932;52.400;9.558;2023-02-11T03:37:32;102327.13;;;8.57;81.96
5812;BME280;2932;52.400;9.558;2023-02-11T03:40:02;102340.84;;;8.39;82.67
5812;BME280;2932;52.400;9.558;2023-02-11T03:42:34;102343.47;;;8.49;82.75
5812;BME280;2932;52.400;9.558;2023-02-11T03:45:06;102345.63;;;8.23;83.71
5812;BME280;2932;52.400;9.558;2023-02-11T03:47:34;102343.72;;;8.18;84.03
5812;BME280;2932;52.400;9.558;2023-02-11T03:50:03;102340.19;;;8.47;83.34
5812;BME280;2932;52.400;9.558;2023-02-11T03:52:30;102317.75;;;8.24;84.77
5812;BME280;2932;52.400;9.558;2023-02-11T03:54:59;102331.38;;;8.45;84.09
5812;BME280;2932;52.400;9.558;2023-02-11T03:57:26;102340.44;;;8.16;84.46
5812;BME280;2932;52.400;9.558;2023-02-11T03:59:54;102342.69;;;8.43;84.83
5812;BME280;2932;52.400;9.558;2023-02-11T04:02:21;102348.34;;;8.33;84.71
5812;BME280;2932;52.400;9.558;2023-02-11T04:04:47;102339.78;;;8.29;85.12
5812;BME280;2932;52.400;9.558;2023-02-11T04:07:13;102343.91;;;8.32;84.86
5812;BME280;2932;52.400;9.558;2023-02-11T04:09:38;102343.44;;;8.20;85.58
5812;BME280;2932;52.400;9.558;2023-02-11T04:12:04;102340.72;;;8.15;85.62
5812;BME280;2932;52.400;9.558;2023-02-11T04:14:29;102320.13;;;8.02;85.84
5812;BME280;2932;52.400;9.558;2023-02-11T04:16:54;102333.50;;;8.19;85.83
5812;BME280;2932;52.400;9.558;2023-02-11T04:19:19;102350.09;;;8.14;85.73
5812;BME280;2932;52.400;9.558;2023-02-11T04:21:45;102354.50;;;8.15;85.91
5812;BME280;2932;52.400;9.558;2023-02-11T04:24:11;102348.44;;;8.13;85.90
5812;BME280;2932;52.400;9.558;2023-02-11T04:26:36;102348.31;;;7.94;86.13
5812;BME280;2932;52.400;9.558;2023-02-11T04:29:01;102346.28;;;8.44;85.03
5812;BME280;2932;52.400;9.558;2023-02-11T04:31:27;102345.75;;;8.02;85.91
5812;BME280;2932;52.400;9.558;2023-02-11T04:33:52;102355.22;;;8.30;85.16
5812;BME280;2932;52.400;9.558;2023-02-11T04:36:17;102350.56;;;8.26;84.76
5812;BME280;2932;52.400;9.558;2023-02-11T04:38:43;102352.44;;;8.30;85.38
5812;BME280;2932;52.400;9.558;2023-02-11T04:41:08;102357.50;;;8.18;85.16
5812;BME280;2932;52.400;9.558;2023-02-11T04:43:33;102347.31;;;8.19;85.72
5812;BME280;2932;52.400;9.558;2023-02-11T04:45:59;102349.44;;;8.27;84.83
5812;BME280;2932;52.400;9.558;2023-02-11T04:48:24;102355.84;;;8.17;85.44
5812;BME280;2932;52.400;9.558;2023-02-11T04:50:50;102352.25;;;8.56;84.32
5812;BME280;2932;52.400;9.558;2023-02-11T04:53:15;102354.13;;;8.60;83.76
5812;BME280;2932;52.400;9.558;2023-02-11T04:55:40;102352.16;;;8.32;84.90
5812;BME280;2932;52.400;9.558;2023-02-11T04:58:06;102349.16;;;8.33;84.63
5812;BME280;2932;52.400;9.558;2023-02-11T05:00:31;102351.88;;;8.39;84.71
5812;BME280;2932;52.400;9.558;2023-02-11T05:02:56;102348.59;;;8.31;84.57
5812;BME280;2932;52.400;9.558;2023-02-11T05:05:22;102349.44;;;8.27;84.47
5812;BME280;2932;52.400;9.558;2023-02-11T05:07:47;102355.06;;;8.51;83.91
5812;BME280;2932;52.400;9.558;2023-02-11T05:10:12;102344.41;;;8.39;84.32
5812;BME280;2932;52.400;9.558;2023-02-11T05:12:38;102325.44;;;8.32;84.31
5812;BME280;2932;52.400;9.558;2023-02-11T05:15:04;102341.06;;;8.42;83.98
5812;BME280;2932;52.400;9.558;2023-02-11T05:17:29;102345.38;;;8.19;84.68
5812;BME280;2932;52.400;9.558;2023-02-11T05:19:55;102349.16;;;8.33;84.58
5812;BME280;2932;52.400;9.558;2023-02-11T05:22:20;102342.94;;;8.47;83.92
5812;BME280;2932;52.400;9.558;2023-02-11T05:24:46;102352.88;;;8.48;84.29
5812;BME280;2932;52.400;9.558;2023-02-11T05:27:12;102350.81;;;8.34;84.23
5812;BME280;2932;52.400;9.558;2023-02-11T05:29:37;102358.69;;;8.46;84.07
5812;BME280;2932;52.400;9.558;2023-02-11T05:32:03;102349.81;;;8.49;83.82
5812;BME280;2932;52.400;9.558;2023-02-11T05:34:28;102338.72;;;8.25;84.18
5812;BME280;2932;52.400;9.558;2023-02-11T05:36:53;102337.75;;;8.40;84.12
5812;BME280;2932;52.400;9.558;2023-02-11T05:39:19;102346.81;;;8.46;83.63
5812;BME280;2932;52.400;9.558;2023-02-11T05:41:44;102350.28;;;8.61;83.32
5812;BME280;2932;52.400;9.558;2023-02-11T05:44:09;102343.53;;;8.73;82.95
5812;BME280;2932;52.400;9.558;2023-02-11T05:46:35;102354.03;;;8.42;83.51
5812;BME280;2932;52.400;9.558;2023-02-11T05:49:00;102348.97;;;8.54;83.55
5812;BME280;2932;52.400;9.558;2023-02-11T05:51:26;102340.53;;;8.69;83.17
5812;BME280;2932;52.400;9.558;2023-02-11T05:53:51;102340.22;;;8.42;83.58
5812;BME280;2932;52.400;9.558;2023-02-11T05:56:17;102337.84;;;8.30;83.50
5812;BME280;2932;52.400;9.558;2023-02-11T05:58:42;102321.00;;;8.37;83.75
5812;BME280;2932;52.400;9.558;2023-02-11T06:01:07;102326.66;;;8.50;83.24
5812;BME280;2932;52.400;9.558;2023-02-11T06:03:33;102325.81;;;8.79;82.21
5812;BME280;2932;52.400;9.558;2023-02-11T06:05:58;102338.66;;;8.64;82.64
5812;BME280;2932;52.400;9.558;2023-02-11T06:08:23;102331.81;;;8.57;82.66
5812;BME280;2932;52.400;9.558;2023-02-11T06:10:49;102330.75;;;8.53;82.94
5812;BME280;2932;52.400;9.558;2023-02-11T06:13:14;102331.69;;;8.72;82.39
5812;BME280;2932;52.400;9.558;2023-02-11T06:15:42;102328.25;;;8.56;83.00
5812;BME280;2932;52.400;9.558;2023-02-11T06:18:08;102343.06;;;8.37;83.33
5812;BME280;2932;52.400;9.558;2023-02-11T06:20:33;102331.50;;;8.63;82.68
5812;BME280;2932;52.400;9.558;2023-02-11T06:22:59;102329.16;;;8.47;82.68
5812;BME280;2932;52.400;9.558;2023-02-11T06:25:24;102350.25;;;8.32;83.60
5812;BME280;2932;52.400;9.558;2023-02-11T06:27:50;102349.44;;;8.27;83.74
5812;BME280;2932;52.400;9.558;2023-02-11T06:30:15;102337.25;;;8.38;83.28
5812;BME280;2932;52.400;9.558;2023-02-11T06:32:40;102329.31;;;8.60;82.04
5812;BME280;2932;52.400;9.558;2023-02-11T06:35:06;102334.13;;;8.45;82.93
5812;BME280;2932;52.400;9.558;2023-02-11T06:37:33;102339.13;;;8.72;82.08
5812;BME280;2932;52.400;9.558;2023-02-11T06:39:59;102350.66;;;8.50;82.72
5812;BME280;2932;52.400;9.558;2023-02-11T06:42:24;102343.88;;;8.37;83.56
5812;BME280;2932;52.400;9.558;2023-02-11T06:44:50;102339.09;;;8.48;82.55
5812;BME280;2932;52.400;9.558;2023-02-11T06:47:16;102352.03;;;8.47;82.45
5812;BME280;2932;52.400;9.558;2023-02-11T06:49:41;102342.28;;;8.26;82.93
5812;BME280;2932;52.400;9.558;2023-02-11T06:52:07;102332.97;;;8.51;82.60
5812;BME280;2932;52.400;9.558;2023-02-11T06:54:32;102346.50;;;8.52;82.58
5812;BME280;2932;52.400;9.558;2023-02-11T06:56:57;102339.69;;;8.74;81.72
5812;BME280;2932;52.400;9.558;2023-02-11T06:59:22;102345.94;;;8.50;82.42
5812;BME280;2932;52.400;9.558;2023-02-11T07:01:48;102348.09;;;8.24;83.33
5812;BME280;2932;52.400;9.558;2023-02-11T07:04:13;102340.97;;;8.52;82.73
5812;BME280;2932;52.400;9.558;2023-02-11T07:06:39;102362.88;;;8.73;81.88
5812;BME280;2932;52.400;9.558;2023-02-11T07:09:05;102352.91;;;8.43;82.71
5812;BME280;2932;52.400;9.558;2023-02-11T07:11:31;102340.47;;;8.45;82.21
5812;BME280;2932;52.400;9.558;2023-02-11T07:14:04;102357.19;;;8.59;82.29
5812;BME280;2932;52.400;9.558;2023-02-11T07:16:32;102356.41;;;8.82;81.38
5812;BME280;2932;52.400;9.558;2023-02-11T07:18:58;102359.66;;;8.60;81.84
5812;BME280;2932;52.400;9.558;2023-02-11T07:21:23;102365.28;;;8.79;81.05
5812;BME280;2932;52.400;9.558;2023-02-11T07:23:49;102361.56;;;8.65;81.98
5812;BME280;2932;52.400;9.558;2023-02-11T07:26:18;102361.22;;;8.72;81.49
5812;BME280;2932;52.400;9.558;2023-02-11T07:28:44;102351.69;;;8.83;81.52
5812;BME280;2932;52.400;9.558;2023-02-11T07:31:18;102370.66;;;8.65;82.15
5812;BME280;2932;52.400;9.558;2023-02-11T07:33:44;102365.59;;;8.44;82.04
5812;BME280;2932;52.400;9.558;2023-02-11T07:36:14;102361.28;;;8.90;81.78
5812;BME280;2932;52.400;9.558;2023-02-11T07:38:39;102343.59;;;8.67;81.33
5812;BME280;2932;52.400;9.558;2023-02-11T07:41:07;102359.53;;;8.76;81.82
5812;BME280;2932;52.400;9.558;2023-02-11T07:43:34;102371.75;;;8.64;81.65
5812;BME280;2932;52.400;9.558;2023-02-11T07:46:05;102346.06;;;8.69;82.49
5812;BME280;2932;52.400;9.558;2023-02-11T07:48:30;102361.78;;;8.68;83.20
5812;BME280;2932;52.400;9.558;2023-02-11T07:51:07;102353.09;;;8.80;82.13
5812;BME280;2932;52.400;9.558;2023-02-11T07:53:33;102359.78;;;8.45;83.61
5812;BME280;2932;52.400;9.558;2023-02-11T07:55:58;102370.41;;;8.62;83.37
5812;BME280;2932;52.400;9.558;2023-02-11T07:58:23;102367.56;;;8.72;82.47
5812;BME280;2932;52.400;9.558;2023-02-11T08:00:49;102360.41;;;8.71;82.72
5812;BME280;2932;52.400;9.558;2023-02-11T08:03:14;102368.47;;;8.62;82.71
5812;BME280;2932;52.400;9.558;2023-02-11T08:05:39;102374.88;;;8.82;82.45
5812;BME280;2932;52.400;9.558;2023-02-11T08:08:04;102381.19;;;8.87;82.38
5812;BME280;2932;52.400;9.558;2023-02-11T08:10:30;102386.72;;;8.58;83.51
5812;BME280;2932;52.400;9.558;2023-02-11T08:12:55;102386.53;;;8.45;84.01
5812;BME280;2932;52.400;9.558;2023-02-11T08:15:20;102384.03;;;8.48;83.65
5812;BME280;2932;52.400;9.558;2023-02-11T08:17:46;102377.38;;;8.54;83.32
5812;BME280;2932;52.400;9.558;2023-02-11T08:20:11;102372.53;;;8.70;82.96
5812;BME280;2932;52.400;9.558;2023-02-11T08:22:37;102371.69;;;8.75;82.84
5812;BME280;2932;52.400;9.558;2023-02-11T08:25:02;102370.59;;;8.71;83.75
5812;BME280;2932;52.400;9.558;2023-02-11T08:27:27;102371.38;;;8.76;83.24
5812;BME280;2932;52.400;9.558;2023-02-11T08:29:53;102377.28;;;8.64;83.58
5812;BME280;2932;52.400;9.558;2023-02-11T08:32:19;102382.41;;;8.76;83.33
5812;BME280;2932;52.400;9.558;2023-02-11T08:34:45;102381.53;;;8.81;83.57
5812;BME280;2932;52.400;9.558;2023-02-11T08:37:10;102394.22;;;8.53;83.83
5812;BME280;2932;52.400;9.558;2023-02-11T08:39:35;102383.78;;;8.79;84.02
5812;BME280;2932;52.400;9.558;2023-02-11T08:42:01;102379.19;;;8.69;83.47
5812;BME280;2932;52.400;9.558;2023-02-11T08:44:26;102391.28;;;8.73;83.29
5812;BME280;2932;52.400;9.558;2023-02-11T08:46:52;102395.09;;;8.77;83.49
5812;BME280;2932;52.400;9.558;2023-02-11T08:49:18;102392.13;;;8.97;82.36
5812;BME280;2932;52.400;9.558;2023-02-11T08:51:45;102392.19;;;8.92;82.62
5812;BME280;2932;52.400;9.558;2023-02-11T08:54:11;102395.72;;;8.98;82.64
5812;BME280;2932;52.400;9.558;2023-02-11T08:56:37;102396.88;;;8.92;82.42
5812;BME280;2932;52.400;9.558;2023-02-11T08:59:03;102397.88;;;8.77;82.96
5812;BME280;2932;52.400;9.558;2023-02-11T09:01:30;102415.13;;;9.17;82.29
5812;BME280;2932;52.400;9.558;2023-02-11T09:03:57;102400.06;;;9.04;82.54
5812;BME280;2932;52.400;9.558;2023-02-11T09:06:24;102412.66;;;8.86;82.93
5812;BME280;2932;52.400;9.558;2023-02-11T09:08:51;102406.19;;;9.01;82.73
5812;BME280;2932;52.400;9.558;2023-02-11T09:11:20;102413.53;;;9.11;82.83
5812;BME280;2932;52.400;9.558;2023-02-11T09:13:46;102428.56;;;8.99;83.34
5812;BME280;2932;52.400;9.558;2023-02-11T09:16:20;102424.91;;;9.04;82.98
5812;BME280;2932;52.400;9.558;2023-02-11T09:18:46;102440.25;;;8.86;83.46
5812;BME280;2932;52.400;9.558;2023-02-11T09:21:12;102429.22;;;8.86;83.95
5812;BME280;2932;52.400;9.558;2023-02-11T09:23:38;102417.94;;;8.83;83.70
5812;BME280;2932;52.400;9.558;2023-02-11T09:26:08;102417.41;;;9.10;83.01
5812;BME280;2932;52.400;9.558;2023-02-11T09:28:34;102414.97;;;8.79;83.48
5812;BME280;2932;52.400;9.558;2023-02-11T09:31:08;102415.63;;;8.95;83.46
5812;BME280;2932;52.400;9.558;2023-02-11T09:33:34;102432.28;;;8.85;83.72
5812;BME280;2932;52.400;9.558;2023-02-11T09:36:04;102437.63;;;9.29;82.36
5812;BME280;2932;52.400;9.558;2023-02-11T09:38:30;102430.44;;;9.04;82.60
5812;BME280;2932;52.400;9.558;2023-02-11T09:40:56;102432.50;;;8.88;83.37
5812;BME280;2932;52.400;9.558;2023-02-11T09:43:25;102429.63;;;8.75;83.90
5812;BME280;2932;52.400;9.558;2023-02-11T09:45:53;102433.91;;;8.86;83.81
5812;BME280;2932;52.400;9.558;2023-02-11T09:48:20;102440.25;;;8.86;84.19
5812;BME280;2932;52.400;9.558;2023-02-11T09:50:50;102447.53;;;8.77;84.61
5812;BME280;2932;52.400;9.558;2023-02-11T09:53:27;102455.66;;;8.92;84.14
5812;BME280;2932;52.400;9.558;2023-02-11T09:56:00;102464.00;;;8.87;84.40
5812;BME280;2932;52.400;9.558;2023-02-11T09:58:27;102459.41;;;9.07;84.07
5812;BME280;2932;52.400;9.558;2023-02-11T10:17:13;102477.53;;;9.18;84.72
5812;BME280;2932;52.400;9.558;2023-02-11T10:22:19;102491.47;;;9.02;85.19
5812;BME280;2932;52.400;9.558;2023-02-11T10:24:56;102494.56;;;9.25;85.01
5812;BME280;2932;52.400;9.558;2023-02-11T10:27:30;102500.38;;;9.23;84.78
5812;BME280;2932;52.400;9.558;2023-02-11T10:30:00;102498.81;;;9.41;83.98
5812;BME280;2932;52.400;9.558;2023-02-11T10:32:45;102493.75;;;9.24;84.65
5812;BME280;2932;52.400;9.558;2023-02-11T10:35:18;102500.91;;;9.25;84.38
5812;BME280;2932;52.400;9.558;2023-02-11T10:37:45;102492.16;;;9.18;84.59
5812;BME280;2932;52.400;9.558;2023-02-11T10:40:23;102486.69;;;9.13;85.13
5812;BME280;2932;52.400;9.558;2023-02-11T10:42:52;102496.22;;;9.26;84.54
5812;BME280;2932;52.400;9.558;2023-02-11T10:45:25;102488.78;;;9.21;85.05
5812;BME280;2932;52.400;9.558;2023-02-11T10:47:51;102493.06;;;9.61;83.90
5812;BME280;2932;52.400;9.558;2023-02-11T10:50:23;102505.38;;;9.21;84.89
5812;BME280;2932;52.400;9.558;2023-02-11T10:52:49;102504.16;;;9.32;84.71
5812;BME280;2932;52.400;9.558;2023-02-11T10:55:18;102501.41;;;9.32;85.08
5812;BME280;2932;52.400;9.558;2023-02-11T10:57:54;102500.75;;;9.41;84.68
5812;BME280;2932;52.400;9.558;2023-02-11T11:03:01;102510.66;;;9.47;85.26
5812;BME280;2932;52.400;9.558;2023-02-11T11:05:35;102507.50;;;9.58;84.82
5812;BME280;2932;52.400;9.558;2023-02-11T11:08:05;102513.50;;;9.36;85.31
5812;BME280;2932;52.400;9.558;2023-02-11T11:10:45;102508.81;;;9.08;86.05
5812;BME280;2932;52.400;9.558;2023-02-11T11:18:32;102522.56;;;9.42;85.50
5812;BME280;2932;52.400;9.558;2023-02-11T11:21:00;102513.84;;;9.30;86.02
5812;BME280;2932;52.400;9.558;2023-02-11T11:23:28;102516.59;;;9.30;86.39
5812;BME280;2932;52.400;9.558;2023-02-11T11:28:27;102531.97;;;9.41;85.92
5812;BME280;2932;52.400;9.558;2023-02-11T11:30:54;102527.81;;;9.44;85.08
5812;BME280;2932;52.400;9.558;2023-02-11T11:33:27;102526.06;;;9.53;85.29
5812;BME280;2932;52.400;9.558;2023-02-11T11:36:00;102522.63;;;9.37;86.09
5812;BME280;2932;52.400;9.558;2023-02-11T11:38:28;102507.25;;;9.26;86.01
5812;BME280;2932;52.400;9.558;2023-02-11T11:46:29;102516.75;;;9.44;85.54
5812;BME280;2932;52.400;9.558;2023-02-11T11:49:16;102517.53;;;9.49;85.67
5812;BME280;2932;52.400;9.558;2023-02-11T11:51:54;102516.19;;;9.47;86.16
5812;BME280;2932;52.400;9.558;2023-02-11T11:54:23;102515.88;;;9.72;85.35
5812;BME280;2932;52.400;9.558;2023-02-11T11:57:03;102520.81;;;9.51;85.87
5812;BME280;2932;52.400;9.558;2023-02-11T11:59:31;102516.72;;;9.73;85.78
5812;BME280;2932;52.400;9.558;2023-02-11T12:05:12;102524.94;;;9.78;85.70
5812;BME280;2932;52.400;9.558;2023-02-11T12:18:20;102497.31;;;9.25;87.41
5812;BME280;2932;52.400;9.558;2023-02-11T12:26:51;102499.41;;;9.62;87.13
5812;BME280;2932;52.400;9.558;2023-02-11T12:59:01;102510.44;;;10.10;85.84
5812;BME280;2932;52.400;9.558;2023-02-11T13:01:34;102511.13;;;9.78;86.45
5812;BME280;2932;52.400;9.558;2023-02-11T13:06:33;102512.75;;;10.02;85.42
5812;BME280;2932;52.400;9.558;2023-02-11T13:09:03;102507.16;;;10.08;85.69
5812;BME280;2932;52.400;9.558;2023-02-11T13:11:43;102507.00;;;10.23;85.02
5812;BME280;2932;52.400;9.558;2023-02-11T13:14:36;102496.59;;;10.33;84.48
5812;BME280;2932;52.400;9.558;2023-02-11T13:17:12;102490.31;;;10.04;85.49
5812;BME280;2932;52.400;9.558;2023-02-11T13:19:47;102494.44;;;10.07;85.35
5812;BME280;2932;52.400;9.558;2023-02-11T13:22:29;102499.16;;;10.30;84.52
5812;BME280;2932;52.400;9.558;2023-02-11T13:25:39;102506.81;;;10.89;83.48
5812;BME280;2932;52.400;9.558;2023-02-11T13:28:22;102508.97;;;10.17;84.28
5812;BME280;2932;52.400;9.558;2023-02-11T13:30:52;102519.56;;;10.53;83.98
5812;BME280;2932;52.400;9.558;2023-02-11T13:33:37;102517.41;;;10.68;83.39
5812;BME280;2932;52.400;9.558;2023-02-11T13:38:29;102508.72;;;10.38;84.32
5812;BME280;2932;52.400;9.558;2023-02-11T13:41:02;102511.28;;;10.34;84.05
5812;BME280;2932;52.400;9.558;2023-02-11T13:43:30;102515.00;;;10.62;83.50
5812;BME280;2932;52.400;9.558;2023-02-11T13:45:58;102514.34;;;10.32;84.21
5812;BME280;2932;52.400;9.558;2023-02-11T13:48:32;102517.91;;;10.52;84.33
5812;BME280;2932;52.400;9.558;2023-02-11T13:51:07;102521.03;;;10.45;84.55
5812;BME280;2932;52.400;9.558;2023-02-11T13:53:53;102520.53;;;10.43;84.49
5812;BME280;2932;52.400;9.558;2023-02-11T13:58:49;102526.22;;;10.52;84.45
5812;BME280;2932;52.400;9.558;2023-02-11T14:04:35;102530.25;;;10.59;84.88
5812;BME280;2932;52.400;9.558;2023-02-11T14:21:32;102523.34;;;10.19;86.24
5812;BME280;2932;52.400;9.558;2023-02-11T14:27:33;102533.84;;;10.60;84.70
5812;BME280;2932;52.400;9.558;2023-02-11T14:29:53;102530.94;;;10.51;85.14
5812;BME280;2932;52.400;9.558;2023-02-11T14:38:00;102546.41;;;10.52;85.46
5812;BME280;2932;52.400;9.558;2023-02-11T14:43:23;102540.22;;;10.60;84.52
5812;BME280;2932;52.400;9.558;2023-02-11T14:45:52;102538.09;;;10.90;84.19
5812;BME280;2932;52.400;9.558;2023-02-11T14:48:19;102546.78;;;10.64;84.48
5812;BME280;2932;52.400;9.558;2023-02-11T14:50:52;102539.47;;;10.55;85.31
5812;BME280;2932;52.400;9.558;2023-02-11T14:53:23;102540.34;;;10.31;85.41
5812;BME280;2932;52.400;9.558;2023-02-11T14:55:51;102538.47;;;10.46;84.86
5812;BME280;2932;52.400;9.558;2023-02-11T14:58:19;102535.13;;;10.30;85.53
5812;BME280;2932;52.400;9.558;2023-02-11T15:00:58;102534.34;;;10.43;85.65
5812;BME280;2932;52.400;9.558;2023-02-11T15:03:40;102545.34;;;10.29;86.07
5812;BME280;2932;52.400;9.558;2023-02-11T15:06:15;102560.03;;;10.67;84.92
5812;BME280;2932;52.400;9.558;2023-02-11T15:08:46;102552.00;;;10.47;85.10
5812;BME280;2932;52.400;9.558;2023-02-11T15:11:14;102568.31;;;10.49;84.91
5812;BME280;2932;52.400;9.558;2023-02-11T15:13:41;102577.44;;;10.49;85.16
5812;BME280;2932;52.400;9.558;2023-02-11T15:16:14;102576.78;;;10.57;84.67
5812;BME280;2932;52.400;9.558;2023-02-11T15:18:47;102581.28;;;10.53;85.02
5812;BME280;2932;52.400;9.558;2023-02-11T15:21:20;102578.13;;;10.60;85.20
5812;BME280;2932;52.400;9.558;2023-02-11T15:24:03;102589.56;;;10.34;85.43
5812;BME280;2932;52.400;9.558;2023-02-11T15:26:32;102580.72;;;10.32;86.16
5812;BME280;2932;52.400;9.558;2023-02-11T15:28:58;102592.47;;;10.43;85.78
5812;BME280;2932;52.400;9.558;2023-02-11T15:31:25;102592.03;;;10.55;85.34
5812;BME280;2932;52.400;9.558;2023-02-11T15:33:52;102587.53;;;10.40;85.26
5812;BME280;2932;52.400;9.558;2023-02-11T15:36:20;102594.81;;;10.36;85.48
5812;BME280;2932;52.400;9.558;2023-02-11T15:39:17;102590.81;;;10.42;85.78
5812;BME280;2932;52.400;9.558;2023-02-11T15:41:43;102592.84;;;10.37;85.73
5812;BME280;2932;52.400;9.558;2023-02-11T15:44:29;102591.50;;;10.53;85.57
5812;BME280;2932;52.400;9.558;2023-02-11T15:46:55;102593.69;;;10.56;85.57
5812;BME280;2932;52.400;9.558;2023-02-11T15:49:22;102602.00;;;10.56;85.25
5812;BME280;2932;52.400;9.558;2023-02-11T15:51:48;102594.28;;;10.53;84.84
5812;BME280;2932;52.400;9.558;2023-02-11T15:54:23;102600.22;;;10.65;84.64
5812;BME280;2932;52.400;9.558;2023-02-11T15:56:51;102602.25;;;10.78;84.29
5812;BME280;2932;52.400;9.558;2023-02-11T15:59:49;102600.81;;;10.99;83.46
5812;BME280;2932;52.400;9.558;2023-02-11T16:02:37;102598.78;;;10.86;83.91
5812;BME280;2932;52.400;9.558;2023-02-11T16:05:34;102597.22;;;10.61;84.63